Meteo Giornale » Osservazioni meteo Stati Uniti (USA) » Roswell Roswell Industrial Air Center
ore: 23:51 - Osservazioni Meteo Roswell Roswell Industrial Air Center
Lat. 33° 18' N Lon. 104° 30' W Alt. 1118 metri s.l.m.
28 °C
Sereno
Temp. 24 Ore
21 °C
37 °C
Sud-Est
16.7 Km/h
Dew point 12 °C
Umidità 37 %
Visibilità 10 Km
Il sole sorge alle ore 06:32
Il sole tramonta alle ore 19:23
| Data e Ora | Cielo e Fenomeni | T °C | DP °C | Um. % | Pres. hPa | Vis. km | Vento km/h | |
|---|---|---|---|---|---|---|---|---|
| Ieri h: 23:51 | Sereno | 28 | 12 | 37 | 1017 | 10 | SE 16.7 | |
| Ieri h: 20:51 | Sereno | 30 | 10 | 28 | 1015 | 10 | E/SE 13 | |
| Ieri h: 19:51 | Sereno | 32 | 9 | 24 | 1014 | 10 | S/SE 13 | |
| Ieri h: 18:51 | Sereno | 35 | 9 | 20 | 1014 | 10 | SE 18.5 | |
| Ieri h: 17:51 | Sereno | 36 | 9 | 19 | 1014 | 10 | E/SE 14.8 | |
| Ieri h: 16:51 | Sereno | 37 | 10 | 19 | 1014 | 10 | E/SE 22.2 | |
| Ieri h: 15:51 | Sereno | 37 | 12 | 22 | 1015 | 10 | S 18.5 | |
| Ieri h: 13:51 | Sereno | 35 | 13 | 26 | 1017 | 10 | E/SE 14.8 | |
| Ieri h: 12:51 | Sereno | 34 | 13 | 28 | 1017 | 10 | E/SE 14.8 | |
| Ieri h: 11:51 | Sereno | 33 | 14 | 31 | 1018 | 10 | S/SE 18.5 | |
| Ieri h: 10:51 | Sereno | 31 | 15 | 37 | 1018 | 10 | S 16.7 | |
| Ieri h: 09:51 | Sereno | 29 | 15 | 42 | 1018 | 10 | S/SE 27.8 | |
| Ieri h: 07:51 | Sereno | 24 | 14 | 53 | 1018 | 10 | S/SE 14.8 | |
| Ieri h: 06:51 | Sereno | 21 | 13 | 60 | 1017 | 10 | N 5.5 | |
| Ieri h: 05:51 | Sereno | 22 | 12 | 53 | 1016 | 10 | SE 9.3 | |
| Ieri h: 04:51 | Sereno | 23 | 12 | 49 | 1017 | 10 | N 5.5 | |
| Ieri h: 03:51 | Sereno | 24 | 13 | 50 | 1016 | 10 | S 9.3 | |
| Ieri h: 02:51 | Sereno | 26 | 13 | 44 | 1016 | 10 | S/SE 9.3 | |
| Ieri h: 01:51 | Sereno | 26 | 11 | 39 | 1016 | 10 | S 11.1 | |
| Ieri h: 00:51 | Sereno | 27 | 9 | 32 | 1016 | 10 | S 13 | |



